createdAt,value
2019-05-10T00:00:53.653Z,998.97
2019-05-10T00:01:53.692Z,999.01
2019-05-10T00:02:53.635Z,998.98
2019-05-10T00:03:53.625Z,998.97
2019-05-10T00:04:53.621Z,998.95
2019-05-10T00:05:53.600Z,998.99
2019-05-10T00:06:53.588Z,998.97
2019-05-10T00:07:53.587Z,999.02
2019-05-10T00:08:53.570Z,998.99
2019-05-10T00:09:53.557Z,999.05
2019-05-10T00:10:53.557Z,999.05
2019-05-10T00:11:53.536Z,999.03
2019-05-10T00:12:53.526Z,999.08
2019-05-10T00:13:53.526Z,999.06
2019-05-10T00:14:53.504Z,999.07
2019-05-10T00:15:53.493Z,999.10
2019-05-10T00:16:53.496Z,999.04
2019-05-10T00:17:53.473Z,999.07
2019-05-10T00:18:53.461Z,999.05
2019-05-10T00:19:53.470Z,999.10
2019-05-10T00:20:53.440Z,999.10
2019-05-10T00:21:53.432Z,999.09
2019-05-10T00:22:53.440Z,999.10
2019-05-10T00:23:53.417Z,999.15
2019-05-10T00:25:03.833Z,999.11
2019-05-10T00:25:54.411Z,999.11
2019-05-10T00:26:53.377Z,999.15
2019-05-10T00:27:53.366Z,999.10
2019-05-10T00:28:53.369Z,999.14
2019-05-10T00:29:53.347Z,999.15
2019-05-10T00:30:53.335Z,999.13
2019-05-10T00:31:53.358Z,999.14
2019-05-10T00:32:53.313Z,999.16
2019-05-10T00:33:53.310Z,999.16
2019-05-10T00:34:53.301Z,999.21
2019-05-10T00:35:53.280Z,999.14
2019-05-10T00:36:53.276Z,999.16
2019-05-10T00:37:53.271Z,999.21
2019-05-10T00:38:53.248Z,999.16
2019-05-10T00:39:53.242Z,999.19
2019-05-10T00:40:53.236Z,999.17
2019-05-10T00:41:53.216Z,999.15
2019-05-10T00:42:53.209Z,999.19
2019-05-10T00:43:53.232Z,999.16
2019-05-10T00:44:53.189Z,999.17
2019-05-10T00:45:53.175Z,999.14
2019-05-10T00:46:53.172Z,999.19
2019-05-10T00:47:53.151Z,999.18
2019-05-10T00:48:53.140Z,999.18
2019-05-10T00:49:53.150Z,999.20
2019-05-10T00:50:53.118Z,999.15
2019-05-10T00:51:53.110Z,999.18
2019-05-10T00:52:53.106Z,999.13
2019-05-10T00:53:53.086Z,999.18
2019-05-10T00:54:53.075Z,999.18
2019-05-10T00:55:53.074Z,999.15
2019-05-10T00:56:53.055Z,999.21
2019-05-10T00:57:53.044Z,999.14
2019-05-10T00:58:53.045Z,999.17
2019-05-10T00:59:53.021Z,999.14
2019-05-10T01:00:53.014Z,999.13
2019-05-10T01:01:53.012Z,999.17
2019-05-10T01:02:52.991Z,999.13
2019-05-10T01:03:52.978Z,999.16
2019-05-10T01:04:52.977Z,999.16
2019-05-10T01:05:52.958Z,999.16
2019-05-10T01:06:56.231Z,999.19
2019-05-10T01:07:52.950Z,999.14
2019-05-10T01:08:52.933Z,999.13
2019-05-10T01:09:52.928Z,999.16
2019-05-10T01:10:52.923Z,999.19
2019-05-10T01:11:52.892Z,999.09
2019-05-10T01:12:52.881Z,999.16
2019-05-10T01:13:52.896Z,999.15
2019-05-10T01:14:52.861Z,999.15
2019-05-10T01:15:52.849Z,999.12
2019-05-10T01:16:52.856Z,999.18
2019-05-10T01:17:52.825Z,999.14
2019-05-10T01:18:52.816Z,999.13
2019-05-10T01:19:52.906Z,999.17
2019-05-10T01:20:52.800Z,999.18
2019-05-10T01:21:52.782Z,999.11
2019-05-10T01:22:52.795Z,999.18
2019-05-10T01:23:52.760Z,999.14
2019-05-10T01:24:52.754Z,999.16
2019-05-10T01:25:52.759Z,999.11
2019-05-10T01:26:52.728Z,999.13
2019-05-10T01:27:52.718Z,999.12
2019-05-10T01:28:52.716Z,999.19
2019-05-10T01:29:52.695Z,999.14
2019-05-10T01:30:52.685Z,999.19
2019-05-10T01:31:52.687Z,999.19
2019-05-10T01:32:52.663Z,999.12
2019-05-10T01:33:52.652Z,999.18
2019-05-10T01:34:52.702Z,999.22
2019-05-10T01:35:52.631Z,999.29
2019-05-10T01:36:52.620Z,999.29
2019-05-10T01:37:52.622Z,999.29
2019-05-10T01:38:52.598Z,999.29
2019-05-10T01:39:52.588Z,999.30
2019-05-10T01:40:52.588Z,999.36
2019-05-10T01:41:52.566Z,999.28
2019-05-10T01:42:52.568Z,999.34
2019-05-10T01:43:52.555Z,999.32
2019-05-10T01:44:52.533Z,999.31
2019-05-10T01:45:52.523Z,999.36
2019-05-10T01:46:52.523Z,999.34
2019-05-10T01:47:52.502Z,999.35
2019-05-10T01:48:52.496Z,999.38
2019-05-10T01:49:52.492Z,999.35
2019-05-10T01:50:52.479Z,999.40
2019-05-10T01:51:52.459Z,999.34
2019-05-10T01:52:52.473Z,999.40
2019-05-10T01:53:52.437Z,999.35
2019-05-10T01:54:52.427Z,999.38
2019-05-10T01:55:53.053Z,999.37
2019-05-10T01:56:52.410Z,999.40
2019-05-10T01:57:52.396Z,999.42
2019-05-10T01:58:52.395Z,999.36
2019-05-10T01:59:52.374Z,999.38
2019-05-10T02:00:52.365Z,999.42
2019-05-10T02:01:52.374Z,999.45
2019-05-10T02:02:52.342Z,999.48
2019-05-10T02:03:52.336Z,999.47
2019-05-10T02:04:52.335Z,999.47
2019-05-10T02:05:52.309Z,999.48
2019-05-10T02:06:52.299Z,999.47
2019-05-10T02:07:52.298Z,999.50
2019-05-10T02:08:52.278Z,999.46
2019-05-10T02:09:52.267Z,999.46
2019-05-10T02:10:52.266Z,999.47
2019-05-10T02:11:52.245Z,999.49
2019-05-10T02:12:52.238Z,999.47
2019-05-10T02:13:52.236Z,999.54
2019-05-10T02:14:52.212Z,999.54
2019-05-10T02:15:52.201Z,999.55
2019-05-10T02:16:52.210Z,999.54
2019-05-10T02:17:52.178Z,999.51
2019-05-10T02:18:52.168Z,999.60
2019-05-10T02:19:52.167Z,999.61
2019-05-10T02:20:52.146Z,999.53
2019-05-10T02:21:52.135Z,999.56
2019-05-10T02:22:52.134Z,999.55
2019-05-10T02:23:52.114Z,999.58
2019-05-10T02:24:52.103Z,999.59
2019-05-10T02:26:08.042Z,999.57
2019-05-10T02:26:53.080Z,999.55
2019-05-10T02:27:52.069Z,999.56
2019-05-10T02:28:52.072Z,999.51
2019-05-10T02:29:52.047Z,999.51
2019-05-10T02:30:52.055Z,999.56
2019-05-10T02:31:52.039Z,999.53
2019-05-10T02:32:52.016Z,999.55
2019-05-10T02:33:52.006Z,999.55
2019-05-10T02:34:52.005Z,999.55
2019-05-10T02:35:51.987Z,999.53
2019-05-10T02:36:51.973Z,999.53
2019-05-10T02:37:51.982Z,999.57
2019-05-10T02:38:51.953Z,999.61
2019-05-10T02:39:51.977Z,999.61
2019-05-10T02:40:51.943Z,999.57
2019-05-10T02:41:51.918Z,999.62
2019-05-10T02:42:51.912Z,999.63
2019-05-10T02:43:51.925Z,999.62
2019-05-10T02:44:51.889Z,999.60
2019-05-10T02:45:51.876Z,999.60
2019-05-10T02:46:51.877Z,999.62
2019-05-10T02:47:51.854Z,999.58
2019-05-10T02:48:51.854Z,999.61
2019-05-10T02:49:51.854Z,999.61
2019-05-10T02:50:51.824Z,999.66
2019-05-10T02:51:51.815Z,999.64
2019-05-10T02:52:51.815Z,999.62
2019-05-10T02:53:51.792Z,999.66
2019-05-10T02:54:51.782Z,999.61
2019-05-10T02:55:51.789Z,999.62
2019-05-10T02:56:51.759Z,999.62
2019-05-10T02:57:51.749Z,999.62
2019-05-10T02:58:51.750Z,999.65
2019-05-10T02:59:51.729Z,999.67
2019-05-10T03:00:51.722Z,999.66
2019-05-10T03:01:51.719Z,999.69
2019-05-10T03:02:51.699Z,999.67
2019-05-10T03:03:51.686Z,999.65
2019-05-10T03:04:51.686Z,999.68
2019-05-10T03:05:51.670Z,999.64
2019-05-10T03:06:51.655Z,999.68
2019-05-10T03:07:51.665Z,999.69
2019-05-10T03:08:51.631Z,999.69
2019-05-10T03:09:51.622Z,999.73
2019-05-10T03:10:51.622Z,999.74
2019-05-10T03:11:51.602Z,999.69
2019-05-10T03:12:51.591Z,999.68
2019-05-10T03:13:51.599Z,999.69
2019-05-10T03:14:51.570Z,999.71
2019-05-10T03:15:51.559Z,999.71
2019-05-10T03:16:51.587Z,999.70
2019-05-10T03:17:51.538Z,999.75
2019-05-10T03:18:51.531Z,999.69
2019-05-10T03:19:51.534Z,999.76
2019-05-10T03:20:51.505Z,999.72
2019-05-10T03:21:51.495Z,999.76
2019-05-10T03:22:51.495Z,999.71
2019-05-10T03:23:51.485Z,999.74
2019-05-10T03:24:51.463Z,999.70
2019-05-10T03:25:51.483Z,999.78
2019-05-10T03:26:51.835Z,999.74
2019-05-10T03:27:51.432Z,999.78
2019-05-10T03:28:51.578Z,999.78
2019-05-10T03:29:51.410Z,999.79
2019-05-10T03:30:51.402Z,999.79
2019-05-10T03:31:51.413Z,999.79
2019-05-10T03:32:51.382Z,999.81
2019-05-10T03:33:56.403Z,999.83
2019-05-10T03:34:52.547Z,999.79
2019-05-10T03:35:51.356Z,999.82
2019-05-10T03:36:51.339Z,999.88
2019-05-10T03:37:51.345Z,999.84
2019-05-10T03:38:51.314Z,999.85
2019-05-10T03:39:51.309Z,999.83
2019-05-10T03:40:51.305Z,999.88
2019-05-10T03:41:51.284Z,999.88
2019-05-10T03:42:51.272Z,999.84
2019-05-10T03:43:51.278Z,999.87
2019-05-10T03:44:51.253Z,999.88
2019-05-10T03:45:51.241Z,999.87
2019-05-10T03:46:51.240Z,999.88
2019-05-10T03:47:51.220Z,999.85
2019-05-10T03:48:51.219Z,999.88
2019-05-10T03:49:51.228Z,999.88
2019-05-10T03:50:51.185Z,999.89
2019-05-10T03:51:51.180Z,999.88
2019-05-10T03:52:52.481Z,999.88
2019-05-10T03:53:51.155Z,999.88
2019-05-10T03:54:51.143Z,999.89
2019-05-10T03:55:51.146Z,999.90
2019-05-10T03:57:09.192Z,999.90
2019-05-10T03:57:52.130Z,999.89
2019-05-10T03:58:51.103Z,999.89
2019-05-10T03:59:51.092Z,999.92
2019-05-10T04:00:51.079Z,999.87
2019-05-10T04:01:51.082Z,999.90
2019-05-10T04:02:51.072Z,999.90
2019-05-10T04:03:51.058Z,999.93
2019-05-10T04:04:51.036Z,999.90
2019-05-10T04:05:51.026Z,999.94
2019-05-10T04:06:51.040Z,999.90
2019-05-10T04:07:51.013Z,999.98
2019-05-10T04:08:50.992Z,999.96
2019-05-10T04:09:50.997Z,999.96
2019-05-10T04:10:50.976Z,999.98
2019-05-10T04:11:50.967Z,999.97
2019-05-10T04:12:51.040Z,999.96
2019-05-10T04:13:50.950Z,999.98
2019-05-10T04:14:50.962Z,1000.01
2019-05-10T04:15:50.932Z,1000.04
2019-05-10T04:16:50.907Z,1000.04
2019-05-10T04:17:50.896Z,1000.04
2019-05-10T04:18:50.888Z,1000.06
2019-05-10T04:19:50.890Z,1000.02
2019-05-10T04:20:50.863Z,1000.03
2019-05-10T04:21:50.872Z,1000.06
2019-05-10T04:22:50.843Z,1000.06
2019-05-10T04:23:50.832Z,1000.07
2019-05-10T04:24:50.823Z,1000.04
2019-05-10T04:25:50.821Z,1000.07
2019-05-10T04:26:50.801Z,1000.11
2019-05-10T04:27:50.800Z,1000.12
2019-05-10T04:28:50.778Z,1000.13
2019-05-10T04:29:50.771Z,1000.12
2019-05-10T04:30:50.756Z,1000.13
2019-05-10T04:31:50.755Z,1000.15
2019-05-10T04:32:50.737Z,1000.15
2019-05-10T04:33:50.736Z,1000.18
2019-05-10T04:34:50.718Z,1000.19
2019-05-10T04:35:50.705Z,1000.22
2019-05-10T04:36:50.693Z,1000.24
2019-05-10T04:37:50.692Z,1000.26
2019-05-10T04:38:50.681Z,1000.26
2019-05-10T04:39:50.675Z,1000.32
2019-05-10T04:40:50.652Z,1000.31
2019-05-10T04:41:50.649Z,1000.28
2019-05-10T04:42:50.637Z,1000.33
2019-05-10T04:43:50.632Z,1000.33
2019-05-10T04:44:53.568Z,1000.37
2019-05-10T04:45:50.612Z,1000.37
2019-05-10T04:46:50.591Z,1000.43
2019-05-10T04:47:50.577Z,1000.41
2019-05-10T04:48:50.565Z,1000.43
2019-05-10T04:49:50.581Z,1000.42
2019-05-10T04:50:50.543Z,1000.45
2019-05-10T04:51:50.544Z,1000.47
2019-05-10T04:52:50.522Z,1000.49
2019-05-10T04:53:50.518Z,1000.48
2019-05-10T04:54:50.504Z,1000.46
2019-05-10T04:55:50.499Z,1000.46
2019-05-10T04:56:50.484Z,1000.46
2019-05-10T04:57:51.467Z,1000.50
2019-05-10T04:58:50.459Z,1000.55
2019-05-10T04:59:50.453Z,1000.50
2019-05-10T05:00:50.437Z,1000.52
2019-05-10T05:01:50.453Z,1000.54
2019-05-10T05:02:50.416Z,1000.58
2019-05-10T05:03:50.421Z,1000.57
2019-05-10T05:04:50.396Z,1000.64
2019-05-10T05:05:50.385Z,1000.64
2019-05-10T05:06:50.373Z,1000.63
2019-05-10T05:07:50.377Z,1000.65
2019-05-10T05:08:50.362Z,1000.65
2019-05-10T05:09:50.353Z,1000.71
2019-05-10T05:10:50.345Z,1000.69
2019-05-10T05:11:50.320Z,1000.73
2019-05-10T05:12:50.309Z,1000.76
2019-05-10T05:13:50.309Z,1000.78
2019-05-10T05:14:50.288Z,1000.78
2019-05-10T05:15:50.293Z,1000.80
2019-05-10T05:16:50.268Z,1000.78
2019-05-10T05:17:50.255Z,1000.82
2019-05-10T05:18:50.245Z,1000.83
2019-05-10T05:19:50.244Z,1000.79
2019-05-10T05:20:50.224Z,1000.84
2019-05-10T05:21:50.233Z,1000.91
2019-05-10T05:22:50.205Z,1000.87
2019-05-10T05:23:50.192Z,1000.92
2019-05-10T05:24:55.127Z,1000.92
2019-05-10T05:25:51.181Z,1000.97
2019-05-10T05:26:50.164Z,1000.93
2019-05-10T05:28:06.410Z,1000.94
2019-05-10T05:28:51.144Z,1000.99
2019-05-10T05:29:50.128Z,1000.99
2019-05-10T05:30:50.119Z,1001.04
2019-05-10T05:31:54.156Z,1001.10
2019-05-10T05:32:51.114Z,1001.08
2019-05-10T05:33:50.089Z,1001.07
2019-05-10T05:34:50.082Z,1001.11
2019-05-10T05:35:50.141Z,1001.11
2019-05-10T05:36:50.054Z,1001.13
2019-05-10T05:37:50.056Z,1001.15
2019-05-10T05:38:50.050Z,1001.16
2019-05-10T05:39:50.022Z,1001.15
2019-05-10T05:40:50.035Z,1001.22
2019-05-10T05:41:52.149Z,1001.24
2019-05-10T05:42:49.990Z,1001.28
2019-05-10T05:43:49.988Z,1001.28
2019-05-10T05:44:49.989Z,1001.27
2019-05-10T05:45:49.962Z,1001.31
2019-05-10T05:46:49.948Z,1001.32
2019-05-10T05:47:49.937Z,1001.36
2019-05-10T05:48:51.577Z,1001.33
2019-05-10T05:49:49.961Z,1001.39
2019-05-10T05:50:49.924Z,1001.36
2019-05-10T05:51:49.896Z,1001.42
2019-05-10T05:52:49.884Z,1001.42
2019-05-10T05:53:49.978Z,1001.46
2019-05-10T05:54:52.925Z,1001.46
2019-05-10T05:55:50.878Z,1001.45
2019-05-10T05:56:50.522Z,1001.49
2019-05-10T05:57:49.831Z,1001.49
2019-05-10T05:58:49.824Z,1001.50
2019-05-10T05:59:49.810Z,1001.57
2019-05-10T06:00:49.813Z,1001.56
2019-05-10T06:01:49.816Z,1001.61
2019-05-10T06:02:49.781Z,1001.53
2019-05-10T06:03:49.767Z,1001.63
2019-05-10T06:04:49.757Z,1001.62
2019-05-10T06:05:49.746Z,1001.64
2019-05-10T06:06:53.660Z,1001.67
2019-05-10T06:07:52.227Z,1001.71
2019-05-10T06:08:54.535Z,1001.67
2019-05-10T06:09:50.702Z,1001.72
2019-05-10T06:10:56.424Z,1001.72
2019-05-10T06:11:50.681Z,1001.72
2019-05-10T06:12:50.718Z,1001.75
2019-05-10T06:13:49.681Z,1001.74
2019-05-10T06:14:52.202Z,1001.83
2019-05-10T06:15:49.637Z,1001.84
2019-05-10T06:16:51.050Z,1001.86
2019-05-10T06:17:56.534Z,1001.90
2019-05-10T06:18:50.615Z,1001.90
2019-05-10T06:19:49.607Z,1001.93
2019-05-10T06:20:49.586Z,1001.91
2019-05-10T06:21:49.578Z,1001.98
2019-05-10T06:23:05.515Z,1001.97
2019-05-10T06:23:50.550Z,1002.00
2019-05-10T06:24:52.335Z,1002.00
2019-05-10T06:25:49.537Z,1002.06
2019-05-10T06:26:49.526Z,1002.05
2019-05-10T06:27:49.508Z,1002.10
2019-05-10T06:29:10.485Z,1002.14
2019-05-10T06:29:50.496Z,1002.18
2019-05-10T06:30:49.497Z,1002.21
2019-05-10T06:31:49.473Z,1002.21
2019-05-10T06:32:53.098Z,1002.27
2019-05-10T06:33:50.441Z,1002.25
2019-05-10T06:34:49.432Z,1002.33
2019-05-10T06:35:49.431Z,1002.30
2019-05-10T06:36:49.411Z,1002.34
2019-05-10T06:37:49.411Z,1002.37
2019-05-10T06:38:49.391Z,1002.42
2019-05-10T06:39:49.401Z,1002.45
2019-05-10T06:40:49.388Z,1002.43
2019-05-10T06:41:50.128Z,1002.45
2019-05-10T06:42:50.346Z,1002.46
2019-05-10T06:43:51.368Z,1002.45
2019-05-10T06:44:49.329Z,1002.36
2019-05-10T06:45:52.444Z,1002.36
2019-05-10T06:46:49.304Z,1002.43
2019-05-10T06:47:52.915Z,1002.53
2019-05-10T06:48:49.283Z,1002.56
2019-05-10T06:49:52.102Z,1002.63
2019-05-10T06:50:49.263Z,1002.64
2019-05-10T06:51:50.978Z,1002.62
2019-05-10T06:52:51.940Z,1002.66
2019-05-10T06:53:53.660Z,1002.69
2019-05-10T06:54:49.221Z,1002.66
2019-05-10T06:55:49.218Z,1002.71
2019-05-10T06:56:49.199Z,1002.66
2019-05-10T06:57:49.874Z,1002.69
2019-05-10T06:58:50.189Z,1002.74
2019-05-10T06:59:49.167Z,1002.79
2019-05-10T07:00:49.157Z,1002.84
2019-05-10T07:01:52.021Z,1003.28
2019-05-10T07:02:49.134Z,1002.89
2019-05-10T07:03:49.124Z,1002.84
2019-05-10T07:04:51.015Z,1003.03
2019-05-10T07:05:49.102Z,1002.94
2019-05-10T07:06:49.107Z,1002.92
2019-05-10T07:07:49.088Z,1002.87
2019-05-10T07:08:51.636Z,1002.95
2019-05-10T07:10:13.239Z,1002.95
2019-05-10T07:10:50.050Z,1003.25
2019-05-10T07:11:49.040Z,1003.02
2019-05-10T07:12:49.037Z,1002.99
2019-05-10T07:13:52.750Z,1003.02
2019-05-10T07:14:49.006Z,1003.04
2019-05-10T07:15:49.013Z,1002.99
2019-05-10T07:16:48.984Z,1003.09
2019-05-10T07:17:48.973Z,1003.05
2019-05-10T07:18:48.964Z,1003.07
2019-05-10T07:19:53.596Z,1003.04
2019-05-10T07:20:49.953Z,1003.05
2019-05-10T07:21:51.251Z,1003.10
2019-05-10T07:22:48.922Z,1003.08
2019-05-10T07:23:48.911Z,1003.07
2019-05-10T07:24:48.900Z,1003.08
2019-05-10T07:25:48.897Z,1003.07
2019-05-10T07:26:48.891Z,1003.11
2019-05-10T07:27:50.451Z,1003.07
2019-05-10T07:28:51.783Z,1003.07
2019-05-10T07:29:49.846Z,1003.09
2019-05-10T07:30:48.838Z,1003.07
2019-05-10T07:31:48.836Z,1003.10
2019-05-10T07:32:48.823Z,1003.11
2019-05-10T07:33:48.802Z,1003.21
2019-05-10T07:34:58.304Z,1003.20
2019-05-10T07:35:49.780Z,1003.19
2019-05-10T07:36:48.770Z,1003.26
2019-05-10T07:37:51.800Z,1003.31
2019-05-10T07:38:48.763Z,1003.29
2019-05-10T07:39:48.737Z,1003.33
2019-05-10T07:40:48.727Z,1003.39
2019-05-10T07:41:48.720Z,1003.34
2019-05-10T07:42:48.705Z,1003.33
2019-05-10T07:43:48.706Z,1003.38
2019-05-10T07:44:48.896Z,1003.39
2019-05-10T07:45:48.674Z,1003.40
2019-05-10T07:46:54.325Z,1003.36
2019-05-10T07:47:49.650Z,1003.38
2019-05-10T07:48:53.551Z,1003.40
2019-05-10T07:49:49.651Z,1003.41
2019-05-10T07:50:51.645Z,1003.40
2019-05-10T07:51:48.611Z,1003.47
2019-05-10T07:52:48.605Z,1003.46
2019-05-10T07:53:48.586Z,1003.46
2019-05-10T07:54:48.713Z,1003.51
2019-05-10T07:55:48.590Z,1003.55
2019-05-10T07:56:48.560Z,1003.58
2019-05-10T07:57:48.543Z,1003.57
2019-05-10T07:58:48.532Z,1003.54
2019-05-10T07:59:51.026Z,1003.54
2019-05-10T08:00:48.509Z,1003.61
2019-05-10T08:01:49.269Z,1003.68
2019-05-10T08:02:52.744Z,1003.67
2019-05-10T08:03:52.441Z,1003.72
2019-05-10T08:04:51.318Z,1003.77
2019-05-10T08:05:55.202Z,1003.78
2019-05-10T08:06:52.081Z,1003.81
2019-05-10T08:07:49.534Z,1003.82
2019-05-10T08:08:49.690Z,1003.84
2019-05-10T08:09:48.818Z,1003.86
2019-05-10T08:10:48.874Z,1003.87
2019-05-10T08:11:48.573Z,1003.87
2019-05-10T08:12:48.545Z,1003.88
2019-05-10T08:13:48.661Z,1003.94
2019-05-10T08:14:50.137Z,1003.97
2019-05-10T08:15:49.029Z,1003.96
2019-05-10T08:16:49.866Z,1003.99
2019-05-10T08:17:51.007Z,1003.98
2019-05-10T08:18:49.730Z,1004.00
2019-05-10T08:19:48.322Z,1004.05
2019-05-10T08:20:53.900Z,1004.07
2019-05-10T08:21:56.533Z,1004.12
2019-05-10T08:22:49.273Z,1004.13
2019-05-10T08:23:48.273Z,1004.15
2019-05-10T08:24:54.400Z,1004.19
2019-05-10T08:25:49.254Z,1004.25
2019-05-10T08:26:48.230Z,1004.24
2019-05-10T08:27:50.523Z,1004.24
2019-05-10T08:28:49.219Z,1004.32
2019-05-10T08:29:52.951Z,1004.34
2019-05-10T08:30:53.687Z,1004.38
2019-05-10T08:31:53.632Z,1004.36
2019-05-10T08:32:49.165Z,1004.39
2019-05-10T08:33:56.171Z,1004.38
2019-05-10T08:34:53.010Z,1004.38
2019-05-10T08:35:53.955Z,1004.40
2019-05-10T08:36:49.123Z,1004.42
2019-05-10T08:37:48.123Z,1004.43
2019-05-10T08:38:58.932Z,1004.46
2019-05-10T08:39:53.477Z,1004.46
2019-05-10T08:40:49.090Z,1004.46
2019-05-10T08:42:03.594Z,1004.50
2019-05-10T08:43:00.184Z,1004.55
2019-05-10T08:43:49.057Z,1004.52
2019-05-10T08:44:53.728Z,1004.54
2019-05-10T08:45:49.592Z,1004.61
2019-05-10T08:46:48.027Z,1004.59
2019-05-10T08:47:52.935Z,1004.61
2019-05-10T08:48:53.079Z,1004.62
2019-05-10T08:50:00.123Z,1004.62
2019-05-10T08:50:54.309Z,1004.64
2019-05-10T08:51:49.534Z,1004.59
2019-05-10T08:52:47.952Z,1004.61
2019-05-10T08:53:55.840Z,1004.61
2019-05-10T08:54:48.932Z,1004.62
2019-05-10T08:55:47.935Z,1004.65
2019-05-10T08:56:54.980Z,1004.64
2019-05-10T08:57:49.429Z,1004.62
2019-05-10T08:58:47.891Z,1004.61
2019-05-10T08:59:47.879Z,1004.62
2019-05-10T09:00:54.655Z,1004.64
2019-05-10T09:01:50.773Z,1004.60
2019-05-10T09:02:47.846Z,1004.63
2019-05-10T09:03:55.128Z,1004.66
2019-05-10T09:04:50.341Z,1004.69
2019-05-10T09:05:47.814Z,1004.70
2019-05-10T09:06:55.523Z,1004.64
2019-05-10T09:07:48.798Z,1004.71
2019-05-10T09:08:52.805Z,1004.68
2019-05-10T09:09:50.134Z,1004.71
2019-05-10T09:10:47.759Z,1004.69
2019-05-10T09:11:47.749Z,1004.68
2019-05-10T09:12:57.615Z,1004.71
2019-05-10T09:13:48.735Z,1004.72
2019-05-10T09:14:48.858Z,1004.74
2019-05-10T09:15:51.699Z,1004.76
2019-05-10T09:16:59.308Z,1004.74
2019-05-10T09:17:48.684Z,1004.75
2019-05-10T09:18:51.211Z,1004.74
2019-05-10T09:19:48.672Z,1004.76
2019-05-10T09:20:47.652Z,1004.80
2019-05-10T09:21:49.877Z,1004.84
2019-05-10T09:22:47.633Z,1004.85
2019-05-10T09:23:52.776Z,1004.86
2019-05-10T09:24:49.969Z,1004.92
2019-05-10T09:25:47.615Z,1004.89
2019-05-10T09:26:52.855Z,1004.93
2019-05-10T09:27:48.591Z,1004.92
2019-05-10T09:28:52.654Z,1004.93
2019-05-10T09:29:48.555Z,1004.97
2019-05-10T09:30:58.695Z,1004.99
2019-05-10T09:31:50.626Z,1004.98
2019-05-10T09:32:47.522Z,1005.01
2019-05-10T09:33:49.789Z,1004.98
2019-05-10T09:34:47.521Z,1005.02
2019-05-10T09:35:54.204Z,1005.03
2019-05-10T09:36:48.479Z,1005.01
2019-05-10T09:37:52.448Z,1005.01
2019-05-10T09:38:48.468Z,1005.03
2019-05-10T09:39:47.447Z,1005.08
2019-05-10T09:40:52.945Z,1005.09
2019-05-10T09:41:48.423Z,1005.09
2019-05-10T09:42:47.415Z,1005.11
2019-05-10T09:43:48.808Z,1005.12
2019-05-10T09:44:47.412Z,1005.15
2019-05-10T09:45:47.382Z,1005.12
2019-05-10T09:46:47.372Z,1005.24
2019-05-10T09:47:47.364Z,1005.22
2019-05-10T09:48:47.351Z,1005.16
2019-05-10T09:49:56.586Z,1005.22
2019-05-10T09:50:48.339Z,1005.22
2019-05-10T09:51:47.320Z,1005.26
2019-05-10T09:52:47.307Z,1005.27
2019-05-10T09:53:48.516Z,1005.29
2019-05-10T09:54:49.469Z,1005.30
2019-05-10T09:55:55.166Z,1005.32
2019-05-10T09:56:52.039Z,1005.34
2019-05-10T09:57:47.966Z,1005.38
2019-05-10T09:58:48.229Z,1005.33
2019-05-10T09:59:47.230Z,1005.37
2019-05-10T10:00:48.518Z,1005.41
2019-05-10T10:01:48.456Z,1005.41
2019-05-10T10:02:55.919Z,1005.39
2019-05-10T10:03:48.187Z,1005.45
2019-05-10T10:04:47.448Z,1005.45
2019-05-10T10:05:48.311Z,1005.51
2019-05-10T10:06:51.193Z,1005.51
2019-05-10T10:07:48.253Z,1005.55
2019-05-10T10:08:51.235Z,1005.55
2019-05-10T10:09:48.125Z,1005.49
2019-05-10T10:10:47.673Z,1005.44
2019-05-10T10:11:57.264Z,1005.54
2019-05-10T10:12:48.090Z,1005.50
2019-05-10T10:13:51.910Z,1005.54
2019-05-10T10:14:48.067Z,1005.51
2019-05-10T10:15:51.999Z,1005.58
2019-05-10T10:16:57.894Z,1005.57
2019-05-10T10:17:48.034Z,1005.60
2019-05-10T10:18:47.782Z,1005.58
2019-05-10T10:19:48.114Z,1005.62
2019-05-10T10:20:48.082Z,1005.60
2019-05-10T10:21:47.613Z,1005.59
2019-05-10T10:22:49.642Z,1005.61
2019-05-10T10:23:47.971Z,1005.59
2019-05-10T10:24:49.054Z,1005.61
2019-05-10T10:25:48.497Z,1005.61
2019-05-10T10:26:48.172Z,1005.64
2019-05-10T10:27:48.027Z,1005.65
2019-05-10T10:28:49.679Z,1005.63
2019-05-10T10:29:47.906Z,1005.63
2019-05-10T10:30:50.352Z,1005.58
2019-05-10T10:31:55.323Z,1005.58
2019-05-10T10:32:47.873Z,1005.60
2019-05-10T10:33:54.914Z,1005.58
2019-05-10T10:34:52.458Z,1005.68
2019-05-10T10:35:48.243Z,1005.61
2019-05-10T10:36:47.491Z,1005.65
2019-05-10T10:37:47.573Z,1005.71
2019-05-10T10:38:49.487Z,1005.68
2019-05-10T10:39:47.718Z,1005.74
2019-05-10T10:40:46.791Z,1005.73
2019-05-10T10:41:48.510Z,1005.71
2019-05-10T10:42:47.317Z,1005.78
2019-05-10T10:43:48.414Z,1005.74
2019-05-10T10:44:48.340Z,1005.84
2019-05-10T10:45:46.734Z,1005.80
2019-05-10T10:46:47.995Z,1005.79
2019-05-10T10:47:47.269Z,1005.81
2019-05-10T10:48:49.151Z,1005.84
2019-05-10T10:49:46.716Z,1005.81
2019-05-10T10:50:51.238Z,1005.86
2019-05-10T10:51:47.669Z,1005.86
2019-05-10T10:52:46.659Z,1005.90
2019-05-10T10:53:47.123Z,1005.88
2019-05-10T10:54:47.966Z,1005.93
2019-05-10T10:55:53.993Z,1005.96
2019-05-10T10:56:48.328Z,1006.03
2019-05-10T10:57:48.132Z,1006.00
2019-05-10T10:58:49.663Z,1006.05
2019-05-10T10:59:47.439Z,1006.08
2019-05-10T11:00:48.170Z,1006.03
2019-05-10T11:01:52.018Z,1006.02
2019-05-10T11:02:52.069Z,1006.01
2019-05-10T11:03:48.869Z,1006.03
2019-05-10T11:04:48.811Z,1006.04
2019-05-10T11:05:46.519Z,1006.03
2019-05-10T11:06:46.508Z,1006.02
2019-05-10T11:07:47.817Z,1006.07
2019-05-10T11:08:46.487Z,1006.06
2019-05-10T11:09:46.476Z,1006.02
2019-05-10T11:10:46.469Z,1006.07
2019-05-10T11:11:46.453Z,1006.06
2019-05-10T11:12:46.443Z,1006.09
2019-05-10T11:13:58.009Z,1006.07
2019-05-10T11:14:47.421Z,1006.12
2019-05-10T11:15:46.415Z,1006.10
2019-05-10T11:16:51.728Z,1006.05
2019-05-10T11:17:47.387Z,1006.03
2019-05-10T11:18:46.379Z,1006.04
2019-05-10T11:19:46.391Z,1006.04
2019-05-10T11:20:49.211Z,1006.08
2019-05-10T11:21:47.345Z,1006.10
2019-05-10T11:22:49.742Z,1006.05
2019-05-10T11:23:47.323Z,1006.01
2019-05-10T11:24:51.746Z,1006.02
2019-05-10T11:25:54.766Z,1006.04
2019-05-10T11:26:47.291Z,1006.04
2019-05-10T11:27:47.608Z,1006.08
2019-05-10T11:28:47.269Z,1006.13
2019-05-10T11:29:46.261Z,1006.06
2019-05-10T11:30:46.249Z,1006.11
2019-05-10T11:31:53.450Z,1006.07
2019-05-10T11:32:47.227Z,1006.11
2019-05-10T11:33:47.461Z,1006.19
2019-05-10T11:34:47.204Z,1006.14
2019-05-10T11:35:46.208Z,1006.09
2019-05-10T11:36:48.124Z,1006.10
2019-05-10T11:37:46.205Z,1006.17
2019-05-10T11:38:47.041Z,1006.06
2019-05-10T11:39:47.257Z,1006.15
2019-05-10T11:40:46.144Z,1006.16
2019-05-10T11:41:46.130Z,1006.17
2019-05-10T11:42:47.655Z,1006.15
2019-05-10T11:43:46.132Z,1006.16
2019-05-10T11:44:50.289Z,1006.14
2019-05-10T11:45:47.087Z,1006.10
2019-05-10T11:46:46.077Z,1006.18
2019-05-10T11:47:48.212Z,1006.14
2019-05-10T11:48:47.077Z,1006.18
2019-05-10T11:49:46.057Z,1006.07
2019-05-10T11:50:46.034Z,1006.06
2019-05-10T11:51:48.020Z,1006.12
2019-05-10T11:52:47.012Z,1006.13
2019-05-10T11:53:48.820Z,1006.14
2019-05-10T11:54:47.011Z,1006.11
2019-05-10T11:55:45.994Z,1006.10
2019-05-10T11:56:45.969Z,1006.10
2019-05-10T11:58:00.806Z,1006.07
2019-05-10T11:58:53.162Z,1006.09
2019-05-10T11:59:46.934Z,1006.07
2019-05-10T12:00:45.935Z,1006.07
2019-05-10T12:01:56.863Z,1006.12
2019-05-10T12:03:46.891Z,1006.12
2019-05-10T12:04:45.884Z,1006.16
2019-05-10T12:05:53.174Z,1006.12
2019-05-10T12:06:51.416Z,1006.19
2019-05-10T12:07:46.214Z,1006.13
2019-05-10T12:08:45.841Z,1006.11
2019-05-10T12:09:53.443Z,1006.18
2019-05-10T12:10:52.794Z,1006.13
2019-05-10T12:11:51.647Z,1006.13
2019-05-10T12:13:04.960Z,1006.21
2019-05-10T12:13:46.796Z,1006.19
2019-05-10T12:14:46.679Z,1006.21